Time;durP1;ratioP1;P1;durP2;ratioP2;P2;SDS_P1;SDS_P2;PMS_P1;PMS_P2;Temp;Humidity;BMP_temperature;BMP_pressure;BME280_temperature;BME280_humidity;BME280_pressure;Samples;Min_cycle;Max_cycle;Signal;HPM_P1;HPM_P2
2021/05/17 00:02:27;;;;;;;;;;;;;;;7.76;83.62;95207.13;3593596;39;19947;-54
2021/05/17 00:04:54;;;;;;;;;;;;;;;7.77;83.74;95198.97;3597460;39;19959;-54
2021/05/17 00:07:22;;;;;;;;;;;;;;;7.76;83.77;95205.28;3594913;39;20913;-54
2021/05/17 00:09:50;;;;;;;;;;;;;;;7.76;84.08;95201.88;3593165;39;19950;-55
2021/05/17 00:12:17;;;;;;;;;;;;;;;7.77;83.65;95198.22;3580884;39;19950;-54
2021/05/17 00:14:45;;;;;;;;;;;;;;;7.73;82.99;95197.13;3591689;39;19948;-54
2021/05/17 00:17:13;;;;;;;;;;;;;;;7.67;83.17;95191.88;3585730;39;19948;-54
2021/05/17 00:19:41;;;;;;;;;;;;;;;7.60;83.93;95183.41;3594461;39;19954;-54
2021/05/17 00:22:08;;;;;;;;;;;;;;;7.56;83.97;95186.81;3594654;39;19949;-54
2021/05/17 00:24:36;;;;;;;;;;;;;;;7.52;84.17;95189.16;3595880;39;19954;-60
2021/05/17 00:27:03;;;;;;;;;;;;;;;7.51;84.20;95183.09;3585288;39;20061;-54
2021/05/17 00:29:31;;;;;;;;;;;;;;;7.50;83.40;95186.00;3592998;39;19985;-53
2021/05/17 00:31:59;;;;;;;;;;;;;;;7.48;84.63;95177.56;3594732;39;19939;-55
2021/05/17 00:34:26;;;;;;;;;;;;;;;7.51;84.11;95182.31;3596323;39;19947;-54
2021/05/17 00:36:54;;;;;;;;;;;;;;;7.51;84.45;95177.84;3586169;39;19953;-53
2021/05/17 00:39:22;;;;;;;;;;;;;;;7.49;84.08;95168.66;3599350;39;19936;-54
2021/05/17 00:41:49;;;;;;;;;;;;;;;7.46;83.61;95174.41;3595347;39;19936;-54
2021/05/17 00:44:17;;;;;;;;;;;;;;;7.43;84.21;95175.72;3586338;39;19944;-53
2021/05/17 00:46:45;;;;;;;;;;;;;;;7.43;83.95;95169.69;3595042;39;19996;-53
2021/05/17 00:49:13;;;;;;;;;;;;;;;7.40;84.61;95165.72;3594672;39;20194;-54
2021/05/17 00:51:41;;;;;;;;;;;;;;;7.37;84.42;95167.03;3603939;39;19942;-54
2021/05/17 00:54:08;;;;;;;;;;;;;;;7.30;84.13;95148.09;3590082;39;20005;-54
2021/05/17 00:56:37;;;;;;;;;;;;;;;7.22;84.62;95148.56;3596020;39;19950;-54
2021/05/17 00:59:05;;;;;;;;;;;;;;;7.19;85.28;95143.84;3586467;39;20357;-54
2021/05/17 01:01:32;;;;;;;;;;;;;;;7.17;85.78;95141.44;3583455;39;19944;-54
2021/05/17 01:04:00;;;;;;;;;;;;;;;7.16;85.50;95133.84;3585074;39;19950;-54
2021/05/17 01:06:34;;;;;;;;;;;;;;;7.14;85.22;95138.53;3594998;39;19948;-54
2021/05/17 01:09:07;;;;;;;;;;;;;;;7.14;85.33;95131.44;3584575;39;20242;-53
2021/05/17 01:11:39;;;;;;;;;;;;;;;7.14;85.33;95128.81;3583075;39;19946;-59
2021/05/17 01:14:07;;;;;;;;;;;;;;;7.15;85.42;95137.50;3583712;39;19947;-54
2021/05/17 01:16:37;;;;;;;;;;;;;;;7.14;85.30;95141.16;3585418;39;20031;-54
2021/05/17 01:19:20;;;;;;;;;;;;;;;7.08;86.13;95125.38;3586190;39;20212;-54
2021/05/17 01:21:56;;;;;;;;;;;;;;;7.09;85.25;95118.31;3590850;39;19951;-57
2021/05/17 01:24:23;;;;;;;;;;;;;;;7.10;86.00;95125.16;3585103;39;20195;-54
2021/05/17 01:26:54;;;;;;;;;;;;;;;7.04;85.79;95118.28;3591992;39;19950;-54
2021/05/17 01:29:21;;;;;;;;;;;;;;;7.03;85.95;95114.88;3592326;39;20139;-53
2021/05/17 01:31:49;;;;;;;;;;;;;;;7.03;85.59;95119.31;3585119;39;19944;-53
2021/05/17 01:34:17;;;;;;;;;;;;;;;7.01;84.72;95119.59;3584600;39;19954;-53
2021/05/17 01:36:45;;;;;;;;;;;;;;;7.01;85.73;95113.56;3585437;39;19948;-54
2021/05/17 01:39:14;;;;;;;;;;;;;;;6.98;84.94;95114.84;3594624;39;19944;-53
2021/05/17 01:41:42;;;;;;;;;;;;;;;6.93;85.57;95112.19;3582960;39;19943;-53
2021/05/17 01:44:12;;;;;;;;;;;;;;;6.96;84.77;95114.28;3582681;39;19955;-53
2021/05/17 01:46:45;;;;;;;;;;;;;;;6.96;85.50;95118.75;3570160;39;21008;-53
2021/05/17 01:49:14;;;;;;;;;;;;;;;6.96;85.04;95119.53;3589041;39;19936;-53
2021/05/17 01:51:44;;;;;;;;;;;;;;;6.99;86.14;95115.63;3580632;39;19947;-53
2021/05/17 01:54:14;;;;;;;;;;;;;;;7.04;85.90;95116.47;3578987;39;19956;-53
2021/05/17 01:56:44;;;;;;;;;;;;;;;7.03;85.77;95114.88;3579001;39;19943;-53
2021/05/17 01:59:31;;;;;;;;;;;;;;;7.05;86.39;95119.88;3572306;39;20254;-54
2021/05/17 02:02:00;;;;;;;;;;;;;;;7.05;85.72;95122.47;3578178;39;19944;-54
2021/05/17 02:04:31;;;;;;;;;;;;;;;7.08;85.31;95129.84;3589397;39;19944;-53
2021/05/17 02:06:59;;;;;;;;;;;;;;;7.09;86.35;95128.81;3580915;39;19948;-53
2021/05/17 02:09:30;;;;;;;;;;;;;;;7.09;85.63;95123.56;3587338;39;19950;-53
2021/05/17 02:11:58;;;;;;;;;;;;;;;7.10;85.41;95126.97;3581568;39;19950;-53
2021/05/17 02:14:44;;;;;;;;;;;;;;;7.16;85.35;95123.34;3577018;39;20771;-53
2021/05/17 02:17:13;;;;;;;;;;;;;;;7.21;84.89;95120.75;3582633;39;20038;-53
2021/05/17 02:19:41;;;;;;;;;;;;;;;7.26;84.23;95118.16;3585393;39;19946;-53
2021/05/17 02:22:08;;;;;;;;;;;;;;;7.30;84.52;95111.38;3584492;39;19936;-54
2021/05/17 02:24:45;;;;;;;;;;;;;;;7.37;84.56;95126.88;3583124;39;19952;-53
2021/05/17 02:27:16;;;;;;;;;;;;;;;7.42;85.04;95128.75;3592488;39;19948;-53
2021/05/17 02:29:45;;;;;;;;;;;;;;;7.48;85.13;95128.53;3593003;39;19944;-53
2021/05/17 02:32:20;;;;;;;;;;;;;;;7.54;84.67;95134.56;3583738;39;19944;-54
2021/05/17 02:34:49;;;;;;;;;;;;;;;7.57;84.15;95128.78;3592326;39;19943;-53
2021/05/17 02:37:18;;;;;;;;;;;;;;;7.55;84.35;95120.41;3591528;39;20196;-61
2021/05/17 02:39:47;;;;;;;;;;;;;;;7.47;84.52;95105.94;3598433;39;19951;-55
2021/05/17 02:42:20;;;;;;;;;;;;;;;7.43;85.35;95117.22;3602553;39;19936;-55
2021/05/17 02:44:47;;;;;;;;;;;;;;;7.35;86.80;95119.25;3593633;39;19988;-56
2021/05/17 02:47:16;;;;;;;;;;;;;;;7.30;86.78;95118.44;3596996;39;19950;-56
2021/05/17 02:49:43;;;;;;;;;;;;;;;7.29;87.80;95117.66;3585394;39;20295;-56
2021/05/17 02:52:11;;;;;;;;;;;;;;;7.29;86.91;95112.41;3591577;39;19951;-55
2021/05/17 02:54:41;;;;;;;;;;;;;;;7.29;86.68;95115.03;3585034;39;19940;-55
2021/05/17 02:57:12;;;;;;;;;;;;;;;7.30;87.37;95119.25;3590582;39;19940;-55
2021/05/17 02:59:52;;;;;;;;;;;;;;;7.33;87.63;95131.81;3574888;39;20301;-56
2021/05/17 03:02:21;;;;;;;;;;;;;;;7.35;87.82;95129.75;3582706;39;19954;-55
2021/05/17 03:04:51;;;;;;;;;;;;;;;7.33;87.47;95133.69;3583510;39;20001;-55
2021/05/17 03:07:21;;;;;;;;;;;;;;;7.29;87.70;95141.28;3585091;39;19944;-54
2021/05/17 03:09:49;;;;;;;;;;;;;;;7.27;87.95;95132.84;3585405;39;19950;-55
2021/05/17 03:12:21;;;;;;;;;;;;;;;7.30;88.01;95129.75;3593050;39;19944;-54
2021/05/17 03:14:50;;;;;;;;;;;;;;;7.34;87.63;95120.28;3592003;39;19944;-55
2021/05/17 03:17:18;;;;;;;;;;;;;;;7.33;87.56;95116.09;3581849;39;19944;-54
2021/05/17 03:19:50;;;;;;;;;;;;;;;7.32;87.88;95111.88;3582370;39;19948;-56
2021/05/17 03:22:18;;;;;;;;;;;;;;;7.35;87.63;95107.97;3583237;39;19936;-57
2021/05/17 03:24:46;;;;;;;;;;;;;;;7.33;87.63;95108.22;3582613;39;19950;-58
2021/05/17 03:27:21;;;;;;;;;;;;;;;7.33;88.05;95102.97;3581998;39;20223;-55
2021/05/17 03:29:49;;;;;;;;;;;;;;;7.34;87.66;95106.41;3591070;39;20837;-55
2021/05/17 03:32:17;;;;;;;;;;;;;;;7.34;87.48;95119.53;3583604;39;19950;-55
2021/05/17 03:34:44;;;;;;;;;;;;;;;7.33;88.32;95123.97;3585144;39;19950;-56
2021/05/17 03:37:12;;;;;;;;;;;;;;;7.33;88.67;95120.56;3583609;39;19944;-55
2021/05/17 03:39:42;;;;;;;;;;;;;;;7.33;88.70;95126.59;3584786;39;19950;-55
2021/05/17 03:42:10;;;;;;;;;;;;;;;7.36;88.26;95117.44;3583953;39;19944;-56
2021/05/17 03:44:38;;;;;;;;;;;;;;;7.41;88.08;95119.28;3591865;39;19951;-55
2021/05/17 03:47:05;;;;;;;;;;;;;;;7.42;87.29;95107.75;3586438;39;19990;-55
2021/05/17 03:49:33;;;;;;;;;;;;;;;7.43;87.62;95102.25;3584406;39;20819;-55
2021/05/17 03:52:00;;;;;;;;;;;;;;;7.47;87.94;95105.13;3591897;39;19944;-55
2021/05/17 03:54:28;;;;;;;;;;;;;;;7.48;87.05;95104.91;3584930;39;19947;-56
2021/05/17 03:56:55;;;;;;;;;;;;;;;7.51;87.28;95106.22;3582608;39;19948;-55
2021/05/17 03:59:24;;;;;;;;;;;;;;;7.50;87.24;95105.44;3584989;39;19943;-55
2021/05/17 04:01:51;;;;;;;;;;;;;;;7.52;87.44;95105.16;3583604;39;21248;-55
2021/05/17 04:04:21;;;;;;;;;;;;;;;7.54;87.40;95110.97;3586130;39;19946;-55
2021/05/17 04:07:07;;;;;;;;;;;;;;;7.54;88.30;95114.34;3595780;39;19944;-55
2021/05/17 04:14:57;;;;;;;;;;;;;;;7.74;87.44;95102.38;3593827;39;20532;-55
2021/05/17 04:17:25;;;;;;;;;;;;;;;7.75;87.30;95103.16;3577027;39;19944;-56
2021/05/17 04:19:52;;;;;;;;;;;;;;;7.77;86.65;95111.56;3584029;39;19948;-56
2021/05/17 04:22:19;;;;;;;;;;;;;;;7.79;87.05;95110.25;3580762;39;19944;-55
2021/05/17 04:24:47;;;;;;;;;;;;;;;7.83;87.33;95105.28;3581289;39;21215;-56
2021/05/17 04:27:14;;;;;;;;;;;;;;;7.82;87.40;95107.13;3577644;39;19948;-56
2021/05/17 04:29:42;;;;;;;;;;;;;;;7.83;87.42;95108.72;3590056;39;19950;-56
2021/05/17 04:32:09;;;;;;;;;;;;;;;7.85;87.21;95105.81;3583649;39;19946;-56
2021/05/17 04:34:37;;;;;;;;;;;;;;;7.88;86.77;95107.94;3587024;39;20348;-55
2021/05/17 04:37:04;;;;;;;;;;;;;;;7.87;86.22;95103.72;3599246;39;19937;-56
2021/05/17 04:39:32;;;;;;;;;;;;;;;7.89;86.51;95104.25;3590092;39;19942;-56
2021/05/17 04:42:00;;;;;;;;;;;;;;;7.91;87.01;95106.63;3586753;39;19950;-56
2021/05/17 04:44:27;;;;;;;;;;;;;;;7.94;86.60;95104.25;3577748;39;19996;-56
2021/05/17 04:46:55;;;;;;;;;;;;;;;7.97;85.99;95105.59;3591118;39;20665;-58
2021/05/17 04:49:23;;;;;;;;;;;;;;;7.98;85.86;95101.94;3588858;39;19944;-55
2021/05/17 04:51:51;;;;;;;;;;;;;;;8.00;86.63;95099.81;3590520;39;19948;-55
2021/05/17 04:54:18;;;;;;;;;;;;;;;8.06;86.23;95105.88;3598180;39;20202;-57
2021/05/17 04:56:45;;;;;;;;;;;;;;;8.10;86.71;95091.97;3593884;39;20546;-58
2021/05/17 04:59:13;;;;;;;;;;;;;;;8.13;86.46;95088.81;3591750;39;19952;-55
2021/05/17 05:01:41;;;;;;;;;;;;;;;8.16;86.29;95090.16;3587467;39;20028;-56
2021/05/17 05:04:08;;;;;;;;;;;;;;;8.22;86.32;95090.94;3590613;39;19967;-55
2021/05/17 05:06:36;;;;;;;;;;;;;;;8.17;86.02;95075.97;3587551;39;19936;-60
2021/05/17 05:09:03;;;;;;;;;;;;;;;8.28;86.63;95093.31;3576633;39;20353;-56
2021/05/17 05:11:31;;;;;;;;;;;;;;;8.27;86.06;95091.72;3595340;39;20285;-56
2021/05/17 05:13:59;;;;;;;;;;;;;;;8.26;85.71;95092.78;3586678;39;19974;-56
2021/05/17 05:16:26;;;;;;;;;;;;;;;8.23;85.99;95093.28;3587680;39;20312;-56
2021/05/17 05:18:54;;;;;;;;;;;;;;;8.24;86.78;95087.00;3598338;39;19937;-57
2021/05/17 05:21:21;;;;;;;;;;;;;;;8.30;86.91;95088.59;3591750;39;19936;-56
2021/05/17 05:23:49;;;;;;;;;;;;;;;8.38;85.37;95091.75;3593612;39;19945;-56
2021/05/17 05:34:06;;;;;;;;;;;;;;;8.63;84.50;95080.47;3594729;39;19947;-61
2021/05/17 05:36:34;;;;;;;;;;;;;;;8.67;84.49;95070.22;3596107;39;20235;-57
2021/05/17 05:39:02;;;;;;;;;;;;;;;8.71;84.22;95069.44;3593246;39;19947;-62
2021/05/17 05:41:30;;;;;;;;;;;;;;;8.75;84.23;95067.06;3590416;39;19951;-57
2021/05/17 05:43:57;;;;;;;;;;;;;;;8.79;84.99;95072.56;3593875;39;20058;-56
2021/05/17 05:46:24;;;;;;;;;;;;;;;8.80;85.39;95074.94;3598748;39;20518;-56
2021/05/17 05:48:52;;;;;;;;;;;;;;;8.81;85.06;95071.25;3592716;39;19936;-56
2021/05/17 05:51:25;;;;;;;;;;;;;;;8.89;84.57;95069.94;3586070;39;19942;-56
2021/05/17 05:53:52;;;;;;;;;;;;;;;8.98;83.66;95059.66;3583585;39;19942;-56
2021/05/17 05:56:20;;;;;;;;;;;;;;;9.08;83.32;95059.63;3593533;39;19946;-57
2021/05/17 05:58:48;;;;;;;;;;;;;;;9.22;83.03;95054.63;3586599;39;19969;-56
2021/05/17 06:01:16;;;;;;;;;;;;;;;9.32;82.81;95048.50;3592529;39;20216;-56
2021/05/17 06:03:44;;;;;;;;;;;;;;;9.43;82.67;95044.78;3602476;39;19952;-56
2021/05/17 06:06:11;;;;;;;;;;;;;;;9.48;80.50;95036.88;3592219;39;19950;-56
2021/05/17 06:08:40;;;;;;;;;;;;;;;9.54;81.18;95040.28;3593718;39;19944;-56
2021/05/17 06:11:09;;;;;;;;;;;;;;;9.61;80.64;95039.97;3584837;39;19974;-57
2021/05/17 06:13:38;;;;;;;;;;;;;;;9.69;80.11;95042.84;3593279;39;19943;-55
2021/05/17 06:16:06;;;;;;;;;;;;;;;9.75;80.70;95034.91;3606057;39;19935;-55
2021/05/17 06:18:34;;;;;;;;;;;;;;;9.83;80.57;95032.50;3596676;39;20256;-58
2021/05/17 06:21:01;;;;;;;;;;;;;;;9.90;79.66;95029.56;3586330;39;20296;-57
2021/05/17 06:23:29;;;;;;;;;;;;;;;9.94;80.16;95027.97;3604944;39;19932;-56
2021/05/17 06:25:58;;;;;;;;;;;;;;;9.94;79.87;95030.59;3595150;39;19935;-56
2021/05/17 06:28:26;;;;;;;;;;;;;;;9.92;79.45;95027.44;3602815;39;20115;-56
2021/05/17 06:30:56;;;;;;;;;;;;;;;9.94;79.68;95025.31;3593606;39;19940;-56
2021/05/17 06:33:25;;;;;;;;;;;;;;;9.97;79.68;95031.88;3592395;39;19947;-56
2021/05/17 06:35:55;;;;;;;;;;;;;;;10.04;79.67;95026.31;3601881;39;19947;-56
2021/05/17 06:38:23;;;;;;;;;;;;;;;10.06;78.48;95026.81;3593280;39;20281;-59
2021/05/17 06:40:53;;;;;;;;;;;;;;;10.05;78.97;95025.25;3583665;39;19936;-56
2021/05/17 06:43:20;;;;;;;;;;;;;;;10.04;79.15;95027.09;3599595;39;20035;-59
2021/05/17 06:45:48;;;;;;;;;;;;;;;10.07;79.01;95018.63;3602276;39;20024;-60
2021/05/17 06:48:16;;;;;;;;;;;;;;;10.08;78.77;95022.84;3592467;39;20281;-56
2021/05/17 06:50:44;;;;;;;;;;;;;;;10.06;79.07;95017.06;3593564;39;19936;-56
2021/05/17 06:53:12;;;;;;;;;;;;;;;10.00;79.19;95018.16;3593879;39;19944;-58
2021/05/17 06:55:51;;;;;;;;;;;;;;;9.96;80.51;95027.66;3598175;39;20196;-57
2021/05/17 06:58:25;;;;;;;;;;;;;;;9.89;81.00;95027.19;3604155;39;20361;-56
2021/05/17 07:00:54;;;;;;;;;;;;;;;9.85;80.62;95019.84;3590923;39;19940;-55
2021/05/17 07:03:22;;;;;;;;;;;;;;;9.83;79.46;95029.84;3591284;39;19944;-56
2021/05/17 07:05:51;;;;;;;;;;;;;;;9.80;79.84;95033.03;3583389;39;19936;-56
2021/05/17 07:13:32;;;;;;;;;;;;;;;9.58;81.54;95028.16;3590508;39;19936;-56
2021/05/17 07:15:59;;;;;;;;;;;;;;;9.48;82.09;95026.34;3588097;39;19944;-55
2021/05/17 07:18:27;;;;;;;;;;;;;;;9.44;82.57;95027.16;3598267;39;19948;-57
2021/05/17 07:23:38;;;;;;;;;;;;;;;9.34;82.46;95014.81;3590621;39;19944;-56
2021/05/17 07:26:11;;;;;;;;;;;;;;;9.22;81.86;95010.66;3590599;39;19950;-57
2021/05/17 07:28:39;;;;;;;;;;;;;;;9.16;81.86;95009.13;3592013;39;19947;-56
2021/05/17 07:31:08;;;;;;;;;;;;;;;9.14;83.67;95011.22;3589597;39;19950;-56
2021/05/17 07:33:37;;;;;;;;;;;;;;;9.16;84.37;95019.63;3593337;39;20201;-56
2021/05/17 07:36:05;;;;;;;;;;;;;;;9.17;84.98;95012.53;3590869;39;19944;-56
2021/05/17 07:38:32;;;;;;;;;;;;;;;9.23;84.94;95003.56;3590415;39;19950;-55
2021/05/17 07:41:01;;;;;;;;;;;;;;;9.29;84.61;95006.97;3590434;39;19936;-56
2021/05/17 07:43:29;;;;;;;;;;;;;;;9.32;84.63;95003.78;3592294;39;19942;-56
2021/05/17 07:45:57;;;;;;;;;;;;;;;9.38;84.50;95005.34;3591927;39;19936;-55
2021/05/17 07:48:25;;;;;;;;;;;;;;;9.45;84.45;95005.81;3593238;39;19936;-55
2021/05/17 07:50:52;;;;;;;;;;;;;;;9.54;85.19;95003.41;3590737;39;19948;-56
2021/05/17 07:53:19;;;;;;;;;;;;;;;9.63;84.47;95001.00;3592605;39;19957;-56
2021/05/17 07:55:51;;;;;;;;;;;;;;;9.69;84.83;94997.28;3581514;39;19944;-57
2021/05/17 07:58:19;;;;;;;;;;;;;;;9.73;84.38;94995.69;3587996;39;19942;-56
2021/05/17 08:00:46;;;;;;;;;;;;;;;9.77;84.67;95001.19;3580650;39;19946;-56
2021/05/17 08:03:14;;;;;;;;;;;;;;;9.81;84.97;94997.72;3589456;39;19951;-60
2021/05/17 08:05:58;;;;;;;;;;;;;;;9.85;86.06;95004.03;3590495;39;19948;-57
2021/05/17 08:08:25;;;;;;;;;;;;;;;9.85;85.60;94990.84;3593644;39;19937;-55
2021/05/17 08:10:53;;;;;;;;;;;;;;;9.96;84.32;95004.75;3591994;39;19946;-55
2021/05/17 08:13:21;;;;;;;;;;;;;;;9.95;84.98;95000.56;3590718;39;20346;-61
2021/05/17 08:16:09;;;;;;;;;;;;;;;9.98;85.09;94999.97;3598834;39;19936;-59
2021/05/17 08:18:37;;;;;;;;;;;;;;;10.03;84.13;94996.53;3594488;39;20352;-57
2021/05/17 08:21:06;;;;;;;;;;;;;;;10.06;83.92;95003.88;3593661;39;19936;-55
2021/05/17 08:23:34;;;;;;;;;;;;;;;10.09;84.73;95002.56;3591653;39;19944;-55
2021/05/17 08:26:05;;;;;;;;;;;;;;;10.08;84.68;95001.78;3590927;39;19943;-55
2021/05/17 08:28:33;;;;;;;;;;;;;;;10.17;84.63;94994.06;3592667;39;19936;-55
2021/05/17 08:31:00;;;;;;;;;;;;;;;10.25;83.82;94995.34;3592633;39;19943;-58
2021/05/17 08:33:29;;;;;;;;;;;;;;;10.33;83.62;94996.59;3590736;39;19951;-56
2021/05/17 08:35:57;;;;;;;;;;;;;;;10.41;84.30;94999.44;3591872;39;19936;-56
2021/05/17 08:38:24;;;;;;;;;;;;;;;10.48;84.08;95001.75;3592937;39;19940;-56
2021/05/17 08:40:52;;;;;;;;;;;;;;;10.49;83.76;95005.19;3590703;39;19990;-56
2021/05/17 08:43:19;;;;;;;;;;;;;;;10.60;83.77;95001.38;3599429;39;19948;-56
2021/05/17 08:45:47;;;;;;;;;;;;;;;10.70;84.48;95001.28;3590476;39;20182;-56
2021/05/17 08:48:14;;;;;;;;;;;;;;;10.75;83.15;95001.25;3593461;39;19939;-56
2021/05/17 08:50:42;;;;;;;;;;;;;;;10.75;82.04;94998.63;3591547;39;19946;-57
2021/05/17 08:53:10;;;;;;;;;;;;;;;10.75;83.27;94988.06;3599607;39;19954;-56
2021/05/17 08:55:41;;;;;;;;;;;;;;;10.73;82.91;94990.19;3591948;39;19951;-56
2021/05/17 08:58:08;;;;;;;;;;;;;;;10.72;81.41;94983.34;3592447;39;20348;-56
2021/05/17 09:00:36;;;;;;;;;;;;;;;10.70;82.52;94980.19;3596188;39;20208;-56
2021/05/17 09:03:04;;;;;;;;;;;;;;;10.79;83.41;94977.72;3603868;39;19942;-56
2021/05/17 09:05:38;;;;;;;;;;;;;;;10.89;83.05;94976.84;3603680;39;20622;-57
2021/05/17 09:08:05;;;;;;;;;;;;;;;10.96;81.88;94984.41;3603476;39;20237;-57
2021/05/17 09:10:38;;;;;;;;;;;;;;;10.95;81.43;94959.88;3603393;39;19953;-57
2021/05/17 09:13:07;;;;;;;;;;;;;;;11.16;81.75;94972.84;3605746;39;20190;-56
2021/05/17 09:15:36;;;;;;;;;;;;;;;11.27;80.29;94976.16;3593343;39;19936;-56
2021/05/17 09:18:13;;;;;;;;;;;;;;;11.33;80.43;94973.16;3605198;39;20282;-57
2021/05/17 09:20:42;;;;;;;;;;;;;;;11.47;79.84;94972.47;3605521;39;19940;-55
2021/05/17 09:23:20;;;;;;;;;;;;;;;11.54;79.62;94973.69;3604357;39;19955;-56
2021/05/17 09:25:57;;;;;;;;;;;;;;;11.58;79.30;94971.25;3583880;39;20495;-58
2021/05/17 09:28:27;;;;;;;;;;;;;;;11.62;79.24;94972.25;3591759;39;20336;-56
2021/05/17 09:31:02;;;;;;;;;;;;;;;11.66;80.45;94967.97;3594860;39;19950;-57
2021/05/17 09:33:38;;;;;;;;;;;;;;;11.67;79.63;94966.13;3601692;39;19948;-57
2021/05/17 09:36:06;;;;;;;;;;;;;;;11.75;79.49;94962.06;3600692;39;19935;-57
2021/05/17 09:38:34;;;;;;;;;;;;;;;11.74;78.69;94958.63;3598731;39;19948;-57
2021/05/17 09:41:03;;;;;;;;;;;;;;;11.73;77.87;94956.28;3599847;39;19943;-57
2021/05/17 09:43:32;;;;;;;;;;;;;;;11.73;78.96;94951.00;3595662;39;19944;-56
2021/05/17 09:46:00;;;;;;;;;;;;;;;11.84;79.90;94947.13;3603790;39;19936;-56
2021/05/17 09:48:29;;;;;;;;;;;;;;;11.96;79.52;94944.03;3604897;39;19936;-57
2021/05/17 09:50:58;;;;;;;;;;;;;;;12.13;78.94;94938.22;3603466;39;19940;-57
2021/05/17 09:53:27;;;;;;;;;;;;;;;12.22;78.41;94935.72;3595158;39;19950;-58
2021/05/17 09:55:54;;;;;;;;;;;;;;;12.28;79.73;94939.84;3592569;39;19940;-57
2021/05/17 09:58:28;;;;;;;;;;;;;;;12.37;78.77;94938.09;3595927;39;19936;-57
2021/05/17 10:01:06;;;;;;;;;;;;;;;12.50;78.62;94941.06;3595411;39;19940;-56
2021/05/17 10:03:45;;;;;;;;;;;;;;;12.52;78.33;94934.41;3605243;39;19943;-56
2021/05/17 10:06:17;;;;;;;;;;;;;;;12.65;77.10;94930.22;3604982;39;19935;-57
2021/05/17 10:08:44;;;;;;;;;;;;;;;12.64;77.48;94927.84;3604798;39;19944;-57
2021/05/17 10:11:12;;;;;;;;;;;;;;;12.65;77.94;94926.78;3599941;39;19936;-57
2021/05/17 10:13:41;;;;;;;;;;;;;;;12.73;77.64;94929.53;3593169;39;20257;-57
2021/05/17 10:16:10;;;;;;;;;;;;;;;12.83;77.58;94923.28;3582540;39;19946;-60
2021/05/17 10:18:40;;;;;;;;;;;;;;;12.96;78.27;94916.41;3604490;39;19936;-57
2021/05/17 10:21:09;;;;;;;;;;;;;;;13.04;78.41;94912.28;3605349;39;19942;-57
2021/05/17 10:23:37;;;;;;;;;;;;;;;13.07;77.13;94914.34;3604975;39;19944;-57
2021/05/17 10:26:10;;;;;;;;;;;;;;;13.15;78.01;94904.91;3586117;39;19936;-57
2021/05/17 10:28:41;;;;;;;;;;;;;;;13.31;77.92;94900.06;3593377;39;19947;-57
2021/05/17 10:31:15;;;;;;;;;;;;;;;13.57;76.86;94897.66;3603484;39;19943;-56
2021/05/17 10:33:44;;;;;;;;;;;;;;;13.80;76.20;94902.97;3595452;39;19950;-60
2021/05/17 10:36:11;;;;;;;;;;;;;;;13.84;75.06;94894.16;3602526;39;19954;-57
2021/05/17 10:44:05;;;;;;;;;;;;;;;13.72;73.07;94888.59;3604669;39;20287;-57
2021/05/17 10:46:45;;;;;;;;;;;;;;;13.71;73.17;94887.03;3604704;39;19939;-56
2021/05/17 10:49:28;;;;;;;;;;;;;;;13.59;73.07;94878.84;3593875;39;20194;-55
2021/05/17 10:52:16;;;;;;;;;;;;;;;13.40;72.77;94879.00;3592177;39;19942;-55
2021/05/17 10:54:45;;;;;;;;;;;;;;;13.21;72.71;94874.59;3585780;39;21033;-55
2021/05/17 10:57:21;;;;;;;;;;;;;;;13.05;73.58;94877.56;3604582;39;19950;-57
2021/05/17 11:02:39;;;;;;;;;;;;;;;13.08;73.79;94869.03;3599325;39;19936;-56
2021/05/17 11:05:11;;;;;;;;;;;;;;;12.95;72.89;94869.06;3583720;39;19942;-56
2021/05/17 11:07:52;;;;;;;;;;;;;;;12.66;72.74;94865.66;3592672;39;19948;-57
2021/05/17 11:10:24;;;;;;;;;;;;;;;12.48;72.60;94874.44;3604017;39;19943;-57
2021/05/17 11:12:51;;;;;;;;;;;;;;;12.29;73.97;94868.16;3588252;39;19950;-57
2021/05/17 11:15:51;;;;;;;;;;;;;;;12.11;74.66;94871.66;3590759;39;19965;-56
2021/05/17 11:18:21;;;;;;;;;;;;;;;12.04;76.23;94874.69;3601511;39;19935;-57
2021/05/17 11:20:50;;;;;;;;;;;;;;;11.97;76.02;94876.88;3601601;39;20001;-57
2021/05/17 11:23:25;;;;;;;;;;;;;;;11.88;75.57;94876.75;3590358;39;19939;-58
2021/05/17 11:26:00;;;;;;;;;;;;;;;11.84;77.98;94879.19;3600311;39;19952;-58
2021/05/17 11:28:38;;;;;;;;;;;;;;;11.85;76.95;94875.47;3603815;39;20203;-58
2021/05/17 11:31:08;;;;;;;;;;;;;;;11.81;77.57;94882.44;3591980;39;19954;-58
2021/05/17 11:33:55;;;;;;;;;;;;;;;11.75;77.73;94880.94;3602588;39;19948;-57
2021/05/17 11:36:26;;;;;;;;;;;;;;;11.81;77.94;94885.06;3602882;39;19942;-58
2021/05/17 11:39:09;;;;;;;;;;;;;;;11.95;79.12;94885.09;3599912;39;19942;-58
2021/05/17 11:41:56;;;;;;;;;;;;;;;12.03;78.94;94882.88;3592277;39;20303;-58
2021/05/17 11:44:23;;;;;;;;;;;;;;;12.04;77.68;94887.91;3591109;39;19935;-59
2021/05/17 11:46:56;;;;;;;;;;;;;;;12.08;77.87;94880.19;3599173;39;20209;-59
2021/05/17 11:49:26;;;;;;;;;;;;;;;12.12;78.43;94878.53;3589695;39;19946;-60
2021/05/17 11:51:55;;;;;;;;;;;;;;;12.23;76.81;94879.13;3591641;39;19935;-58
2021/05/17 11:54:24;;;;;;;;;;;;;;;12.37;78.75;94879.16;3592895;39;19944;-58
2021/05/17 11:56:55;;;;;;;;;;;;;;;12.44;78.53;94875.03;3602553;39;19967;-57
2021/05/17 11:59:24;;;;;;;;;;;;;;;12.51;77.97;94874.63;3601018;39;20182;-56
2021/05/17 12:01:53;;;;;;;;;;;;;;;12.58;78.16;94875.06;3602406;39;19940;-56
2021/05/17 12:04:25;;;;;;;;;;;;;;;12.55;78.75;94880.16;3594449;39;20377;-57
2021/05/17 12:06:55;;;;;;;;;;;;;;;12.42;78.50;94868.47;3603864;39;19947;-59
2021/05/17 12:09:28;;;;;;;;;;;;;;;12.34;78.63;94867.28;3599199;39;19944;-58
2021/05/17 12:11:57;;;;;;;;;;;;;;;12.32;79.83;94861.50;3601212;39;19935;-58
2021/05/17 12:14:24;;;;;;;;;;;;;;;12.30;79.60;94861.81;3593496;39;19942;-56
2021/05/17 12:17:03;;;;;;;;;;;;;;;12.25;79.90;94856.59;3595145;39;20018;-59
2021/05/17 12:19:31;;;;;;;;;;;;;;;12.16;79.25;94863.63;3595102;39;19936;-57
2021/05/17 12:21:59;;;;;;;;;;;;;;;12.10;79.69;94859.53;3593556;39;19947;-57
2021/05/17 12:24:29;;;;;;;;;;;;;;;12.04;80.77;94860.69;3602091;39;19946;-56
2021/05/17 12:26:59;;;;;;;;;;;;;;;11.99;79.71;94857.06;3601384;39;19947;-57
2021/05/17 12:29:28;;;;;;;;;;;;;;;11.92;79.66;94859.25;3601183;39;20521;-57
2021/05/17 12:32:09;;;;;;;;;;;;;;;11.87;79.81;94856.72;3606382;39;19943;-57
2021/05/17 12:34:37;;;;;;;;;;;;;;;11.76;80.12;94858.72;3592723;39;19943;-57
2021/05/17 12:37:06;;;;;;;;;;;;;;;11.73;81.73;94861.16;3591711;39;19944;-57
2021/05/17 12:39:34;;;;;;;;;;;;;;;11.60;81.58;94857.38;3590668;39;19947;-56
2021/05/17 12:42:12;;;;;;;;;;;;;;;11.59;83.58;94853.16;3594364;39;19936;-57
2021/05/17 12:44:41;;;;;;;;;;;;;;;11.53;81.27;94853.25;3595873;39;19942;-57
2021/05/17 12:47:10;;;;;;;;;;;;;;;11.52;82.75;94845.63;3596249;39;19944;-57
2021/05/17 12:49:52;;;;;;;;;;;;;;;11.56;82.69;94845.84;3604233;39;20014;-57
2021/05/17 12:52:24;;;;;;;;;;;;;;;11.60;83.89;94842.34;3595665;39;20194;-57
2021/05/17 12:55:10;;;;;;;;;;;;;;;11.71;83.88;94852.75;3604947;39;20691;-56
2021/05/17 12:57:49;;;;;;;;;;;;;;;11.77;84.30;94838.34;3583904;39;19932;-56
2021/05/17 13:00:37;;;;;;;;;;;;;;;11.87;83.61;94832.94;3588418;39;19936;-57
2021/05/17 13:03:06;;;;;;;;;;;;;;;11.90;81.93;94842.13;3594419;39;19946;-56
2021/05/17 13:05:52;;;;;;;;;;;;;;;11.85;79.83;94837.72;3602167;39;21695;-56
2021/05/17 13:08:20;;;;;;;;;;;;;;;11.84;81.43;94841.44;3602843;39;19936;-57
2021/05/17 13:10:57;;;;;;;;;;;;;;;11.88;84.14;94842.41;3602641;39;20449;-57
2021/05/17 13:14:00;;;;;;;;;;;;;;;12.00;83.79;94837.47;3591910;39;19947;-55
2021/05/17 13:16:30;;;;;;;;;;;;;;;12.10;83.68;94841.03;3557460;40;19955;-55
2021/05/17 13:19:03;;;;;;;;;;;;;;;12.11;82.61;94839.94;3588059;39;19955;-61
2021/05/17 13:21:58;;;;;;;;;;;;;;;12.13;82.36;94843.06;3602854;39;19944;-57
2021/05/17 13:30:12;;;;;;;;;;;;;;;12.16;83.53;94837.19;3599493;39;19951;-56
2021/05/17 13:32:41;;;;;;;;;;;;;;;12.12;81.72;94828.31;3591418;39;20277;-57
2021/05/17 13:35:10;;;;;;;;;;;;;;;12.15;82.04;94839.06;3602856;39;19957;-57
2021/05/17 13:37:38;;;;;;;;;;;;;;;12.25;83.37;94832.03;3596756;39;20088;-57
2021/05/17 13:40:06;;;;;;;;;;;;;;;12.35;82.77;94825.78;3593385;39;19950;-57
2021/05/17 13:42:34;;;;;;;;;;;;;;;12.40;81.60;94820.38;3602811;39;19946;-57
2021/05/17 13:45:03;;;;;;;;;;;;;;;12.45;81.61;94821.06;3594096;39;19947;-57